Time,TemperatureF,DewpointF,PressureIn,WindDirection,WindDirectionDegrees,WindSpeedMPH,WindSpeedGustMPH,Humidity,HourlyPrecipIn,Conditions,Clouds,dailyrainin,SoftwareType,DateUTC
2013-11-17 00:02:00,45.0,39.3,29.41,WSW,247,0.0,0.0,80,0.00,,,0.00,WUHU21636XXSP,2013-11-17 06:02:00,
2013-11-17 00:07:00,44.7,39.0,29.41,WSW,247,0.0,0.0,80,0.00,,,0.00,WUHU21636XXSP,2013-11-17 06:07:00,
2013-11-17 00:12:00,44.5,38.8,29.41,WSW,247,0.0,0.0,80,0.00,,,0.00,WUHU21636XXSP,2013-11-17 06:12:00,
2013-11-17 00:17:00,44.3,38.6,29.41,WSW,247,0.0,0.0,80,0.00,,,0.00,WUHU21636XXSP,2013-11-17 06:17:00,
2013-11-17 00:22:00,44.0,38.2,29.41,WSW,247,0.0,0.0,80,0.00,,,0.00,WUHU21636XXSP,2013-11-17 06:22:00,
2013-11-17 00:27:00,43.8,38.3,29.41,WSW,247,0.0,0.0,81,0.00,,,0.00,WUHU21636XXSP,2013-11-17 06:27:00,
2013-11-17 00:32:00,43.4,37.9,29.40,WSW,247,0.0,0.0,81,0.00,,,0.00,WUHU21636XXSP,2013-11-17 06:32:00,
2013-11-17 00:37:00,43.0,37.6,29.40,SSE,157,0.0,0.0,81,0.00,,,0.00,WUHU21636XXSP,2013-11-17 06:37:00,
2013-11-17 00:42:00,42.6,37.5,29.40,SSW,202,0.0,0.0,82,0.00,,,0.00,WUHU21636XXSP,2013-11-17 06:42:00,
2013-11-17 00:47:00,42.4,37.3,29.40,WSW,247,0.0,0.0,82,0.00,,,0.00,WUHU21636XXSP,2013-11-17 06:47:00,
2013-11-17 00:52:00,42.2,37.1,29.40,SSW,202,0.0,0.0,82,0.00,,,0.00,WUHU21636XXSP,2013-11-17 06:52:00,
2013-11-17 00:57:00,42.2,37.4,29.40,SE,135,0.0,0.0,83,0.00,,,0.00,WUHU21636XXSP,2013-11-17 06:57:00,
2013-11-17 01:02:00,42.2,37.4,29.40,SE,135,0.0,0.0,83,0.00,,,0.00,WUHU21636XXSP,2013-11-17 07:02:00,
2013-11-17 01:07:00,42.1,37.3,29.40,North,0,0.0,0.0,83,0.00,,,0.00,WUHU21636XXSP,2013-11-17 07:07:00,
2013-11-17 01:12:00,42.2,37.4,29.39,NNW,337,0.0,0.0,83,0.00,,,0.00,WUHU21636XXSP,2013-11-17 07:12:00,
2013-11-17 01:17:00,42.2,37.7,29.40,NE,45,0.0,0.0,84,0.00,,,0.00,WUHU21636XXSP,2013-11-17 07:17:00,
2013-11-17 01:22:00,42.2,37.7,29.40,WNW,292,0.0,0.0,84,0.00,,,0.00,WUHU21636XXSP,2013-11-17 07:22:00,
2013-11-17 01:27:00,42.4,37.9,29.41,WNW,292,0.0,0.0,84,0.00,,,0.00,WUHU21636XXSP,2013-11-17 07:27:00,
2013-11-17 01:32:00,42.6,38.1,29.40,SW,225,1.2,1.2,84,0.00,,,0.00,WUHU21636XXSP,2013-11-17 07:32:00,
2013-11-17 01:37:00,42.6,38.1,29.40,West,270,0.0,1.2,84,0.00,,,0.00,WUHU21636XXSP,2013-11-17 07:37:00,
2013-11-17 01:42:00,42.6,38.1,29.40,NNW,337,0.0,0.0,84,0.00,,,0.00,WUHU21636XXSP,2013-11-17 07:42:00,
2013-11-17 01:47:00,42.8,38.3,29.40,WSW,247,0.0,0.0,84,0.00,,,0.00,WUHU21636XXSP,2013-11-17 07:47:00,
2013-11-17 01:52:00,43.8,39.3,29.40,West,270,0.0,0.0,84,0.00,,,0.00,WUHU21636XXSP,2013-11-17 07:52:00,
2013-11-17 01:57:00,44.1,39.6,29.40,WSW,247,3.0,12.4,84,0.00,,,0.00,WUHU21636XXSP,2013-11-17 07:57:00,
2013-11-17 02:02:00,44.3,39.5,29.39,ESE,112,0.0,12.4,83,0.00,,,0.00,WUHU21636XXSP,2013-11-17 08:02:00,
2013-11-17 02:07:00,44.0,39.2,29.39,South,180,0.0,0.0,83,0.00,,,0.00,WUHU21636XXSP,2013-11-17 08:07:00,
2013-11-17 02:12:00,44.1,39.3,29.39,SSW,202,0.0,0.0,83,0.00,,,0.00,WUHU21636XXSP,2013-11-17 08:12:00,
2013-11-17 02:17:00,44.3,39.5,29.39,WNW,292,0.0,0.0,83,0.00,,,0.00,WUHU21636XXSP,2013-11-17 08:17:00,
2013-11-17 02:22:00,44.3,39.5,29.40,West,270,0.0,0.0,83,0.00,,,0.00,WUHU21636XXSP,2013-11-17 08:22:00,
2013-11-17 02:27:00,45.0,40.2,29.40,SE,135,8.0,8.0,83,0.00,,,0.00,WUHU21636XXSP,2013-11-17 08:27:00,
2013-11-17 02:32:00,45.9,41.0,29.40,WSW,247,8.0,8.0,83,0.00,,,0.00,WUHU21636XXSP,2013-11-17 08:32:00,
2013-11-17 02:37:00,46.0,41.1,29.40,NNW,337,0.0,8.0,83,0.00,,,0.00,WUHU21636XXSP,2013-11-17 08:37:00,
2013-11-17 02:42:00,45.9,40.7,29.40,NNW,337,0.0,0.0,82,0.00,,,0.00,WUHU21636XXSP,2013-11-17 08:42:00,
2013-11-17 02:47:00,45.7,40.5,29.40,NNW,337,0.0,0.0,82,0.00,,,0.00,WUHU21636XXSP,2013-11-17 08:47:00,
2013-11-17 02:52:00,45.3,40.1,29.40,NNW,337,0.0,0.0,82,0.00,,,0.00,WUHU21636XXSP,2013-11-17 08:52:00,
2013-11-17 02:57:00,45.3,40.4,29.39,NW,315,0.0,0.0,83,0.00,,,0.00,WUHU21636XXSP,2013-11-17 08:57:00,
2013-11-17 03:02:00,45.5,40.6,29.40,WSW,247,0.0,0.0,83,0.00,,,0.00,WUHU21636XXSP,2013-11-17 09:02:00,
2013-11-17 03:07:00,45.3,40.4,29.40,WSW,247,0.0,0.0,83,0.00,,,0.00,WUHU21636XXSP,2013-11-17 09:07:00,
2013-11-17 03:12:00,44.7,39.9,29.40,SSW,202,0.0,0.0,83,0.00,,,0.00,WUHU21636XXSP,2013-11-17 09:12:00,
2013-11-17 03:17:00,44.5,39.7,29.40,NE,45,0.0,0.0,83,0.00,,,0.00,WUHU21636XXSP,2013-11-17 09:17:00,
2013-11-17 03:22:00,44.5,40.0,29.40,NNW,337,0.0,0.0,84,0.00,,,0.00,WUHU21636XXSP,2013-11-17 09:22:00,
2013-11-17 03:27:00,45.0,40.5,29.40,NW,315,2.2,2.2,84,0.00,,,0.00,WUHU21636XXSP,2013-11-17 09:27:00,
2013-11-17 03:32:00,45.7,41.1,29.40,NW,315,0.0,2.2,84,0.00,,,0.00,WUHU21636XXSP,2013-11-17 09:32:00,
2013-11-17 03:37:00,45.5,40.9,29.39,NW,315,0.0,2.2,84,0.00,,,0.00,WUHU21636XXSP,2013-11-17 09:37:00,
2013-11-17 03:42:00,45.3,40.7,29.40,NW,315,0.0,0.0,84,0.00,,,0.00,WUHU21636XXSP,2013-11-17 09:42:00,
2013-11-17 03:47:00,45.3,40.7,29.39,NW,315,0.0,0.0,84,0.00,,,0.00,WUHU21636XXSP,2013-11-17 09:47:00,
2013-11-17 03:52:00,45.0,40.5,29.39,West,270,0.0,0.0,84,0.00,,,0.00,WUHU21636XXSP,2013-11-17 09:52:00,
2013-11-17 03:57:00,45.0,40.5,29.39,West,270,0.0,0.0,84,0.00,,,0.00,WUHU21636XXSP,2013-11-17 09:57:00,
2013-11-17 04:02:00,45.0,40.5,29.39,West,270,0.0,0.0,84,0.00,,,0.00,WUHU21636XXSP,2013-11-17 10:02:00,
2013-11-17 04:08:00,44.9,40.4,29.39,West,270,0.0,0.0,84,0.00,,,0.00,WUHU21636XXSP,2013-11-17 10:08:00,
2013-11-17 04:13:00,44.7,40.2,29.39,West,270,0.0,0.0,84,0.00,,,0.00,WUHU21636XXSP,2013-11-17 10:13:00,
2013-11-17 04:18:00,44.7,40.2,29.38,West,270,0.0,0.0,84,0.00,,,0.00,WUHU21636XXSP,2013-11-17 10:18:00,
2013-11-17 04:23:00,44.7,40.2,29.38,West,270,0.0,0.0,84,0.00,,,0.00,WUHU21636XXSP,2013-11-17 10:23:00,
2013-11-17 04:28:00,44.7,40.2,29.38,West,270,0.0,0.0,84,0.00,,,0.00,WUHU21636XXSP,2013-11-17 10:28:00,
2013-11-17 04:33:00,44.7,40.2,29.39,West,270,0.0,0.0,84,0.00,,,0.00,WUHU21636XXSP,2013-11-17 10:33:00,
2013-11-17 04:38:00,44.7,40.2,29.39,West,270,0.0,0.0,84,0.00,,,0.00,WUHU21636XXSP,2013-11-17 10:38:00,
2013-11-17 04:43:00,44.7,40.2,29.38,West,270,0.0,0.0,84,0.00,,,0.00,WUHU21636XXSP,2013-11-17 10:43:00,
2013-11-17 04:48:00,44.5,40.0,29.38,WSW,247,0.0,0.0,84,0.00,,,0.00,WUHU21636XXSP,2013-11-17 10:48:00,
2013-11-17 04:53:00,44.3,39.8,29.38,WSW,247,0.0,0.0,84,0.00,,,0.00,WUHU21636XXSP,2013-11-17 10:53:00,
2013-11-17 04:58:00,44.3,39.8,29.38,SW,225,0.0,0.0,84,0.00,,,0.00,WUHU21636XXSP,2013-11-17 10:58:00,
2013-11-17 05:03:00,44.3,39.8,29.38,SW,225,0.0,0.0,84,0.00,,,0.00,WUHU21636XXSP,2013-11-17 11:03:00,
2013-11-17 05:08:00,44.3,39.8,29.38,SW,225,0.0,0.0,84,0.00,,,0.00,WUHU21636XXSP,2013-11-17 11:08:00,
2013-11-17 05:13:00,44.1,39.6,29.38,SW,225,0.0,0.0,84,0.00,,,0.00,WUHU21636XXSP,2013-11-17 11:13:00,
2013-11-17 05:18:00,44.0,39.5,29.37,SW,225,0.0,0.0,84,0.00,,,0.00,WUHU21636XXSP,2013-11-17 11:18:00,
2013-11-17 05:23:00,44.0,39.5,29.37,SW,225,0.0,0.0,84,0.00,,,0.00,WUHU21636XXSP,2013-11-17 11:23:00,
2013-11-17 05:28:00,44.0,39.5,29.36,SW,225,0.0,0.0,84,0.00,,,0.00,WUHU21636XXSP,2013-11-17 11:28:00,
2013-11-17 05:33:00,44.0,39.5,29.36,SW,225,0.0,0.0,84,0.00,,,0.00,WUHU21636XXSP,2013-11-17 11:33:00,
2013-11-17 05:38:00,44.0,39.5,29.36,SW,225,0.0,0.0,84,0.00,,,0.00,WUHU21636XXSP,2013-11-17 11:38:00,
2013-11-17 05:43:00,44.0,39.5,29.35,SW,225,0.0,0.0,84,0.00,,,0.00,WUHU21636XXSP,2013-11-17 11:43:00,
2013-11-17 05:48:00,44.0,39.5,29.35,SW,225,0.0,0.0,84,0.00,,,0.00,WUHU21636XXSP,2013-11-17 11:48:00,
2013-11-17 05:53:00,44.0,39.5,29.34,SW,225,0.0,0.0,84,0.00,,,0.00,WUHU21636XXSP,2013-11-17 11:53:00,
2013-11-17 05:58:00,44.0,39.5,29.34,SW,225,0.0,0.0,84,0.00,,,0.00,WUHU21636XXSP,2013-11-17 11:58:00,
2013-11-17 06:03:00,44.0,39.5,29.34,SW,225,0.0,0.0,84,0.00,,,0.00,WUHU21636XXSP,2013-11-17 12:03:00,
2013-11-17 06:08:00,44.0,39.5,29.34,SW,225,0.0,0.0,84,0.00,,,0.00,WUHU21636XXSP,2013-11-17 12:08:00,
2013-11-17 06:13:00,44.0,39.5,29.35,SW,225,0.0,0.0,84,0.00,,,0.00,WUHU21636XXSP,2013-11-17 12:13:00,
2013-11-17 06:18:00,44.0,39.5,29.34,SW,225,0.0,0.0,84,0.00,,,0.00,WUHU21636XXSP,2013-11-17 12:18:00,
2013-11-17 06:23:00,44.0,39.8,29.34,SW,225,0.0,0.0,85,0.00,,,0.00,WUHU21636XXSP,2013-11-17 12:23:00,
2013-11-17 06:28:00,44.0,39.8,29.34,SW,225,0.0,0.0,85,0.00,,,0.00,WUHU21636XXSP,2013-11-17 12:28:00,
2013-11-17 06:33:00,44.1,39.9,29.33,SW,225,0.0,0.0,85,0.00,,,0.00,WUHU21636XXSP,2013-11-17 12:33:00,
2013-11-17 06:38:00,44.1,39.9,29.33,SW,225,0.0,0.0,85,0.00,,,0.00,WUHU21636XXSP,2013-11-17 12:38:00,
2013-11-17 06:43:00,44.1,39.9,29.32,SW,225,0.0,0.0,85,0.00,,,0.00,WUHU21636XXSP,2013-11-17 12:43:00,
2013-11-17 06:48:00,44.1,39.9,29.33,SW,225,0.0,0.0,85,0.00,,,0.00,WUHU21636XXSP,2013-11-17 12:48:00,
2013-11-17 06:53:00,44.3,40.1,29.33,SW,225,0.0,0.0,85,0.00,,,0.00,WUHU21636XXSP,2013-11-17 12:53:00,
2013-11-17 06:58:00,44.3,40.1,29.33,SW,225,0.0,0.0,85,0.00,,,0.00,WUHU21636XXSP,2013-11-17 12:58:00,
2013-11-17 07:03:00,44.3,40.1,29.33,SW,225,0.0,0.0,85,0.00,,,0.00,WUHU21636XXSP,2013-11-17 13:03:00,
2013-11-17 07:08:00,44.3,40.1,29.33,SW,225,0.0,0.0,85,0.00,,,0.00,WUHU21636XXSP,2013-11-17 13:08:00,
2013-11-17 07:13:00,44.3,40.1,29.33,SW,225,0.0,0.0,85,0.00,,,0.00,WUHU21636XXSP,2013-11-17 13:13:00,
2013-11-17 07:18:00,44.3,40.1,29.33,SW,225,0.0,0.0,85,0.00,,,0.00,WUHU21636XXSP,2013-11-17 13:18:00,
2013-11-17 07:23:00,44.5,40.3,29.32,SW,225,0.0,0.0,85,0.00,,,0.00,WUHU21636XXSP,2013-11-17 13:23:00,
2013-11-17 07:28:00,44.5,40.3,29.33,SW,225,0.0,0.0,85,0.00,,,0.00,WUHU21636XXSP,2013-11-17 13:28:00,
2013-11-17 07:33:00,44.5,40.3,29.33,SW,225,0.0,0.0,85,0.00,,,0.00,WUHU21636XXSP,2013-11-17 13:33:00,
2013-11-17 07:38:00,44.7,40.5,29.32,SW,225,0.0,0.0,85,0.00,,,0.00,WUHU21636XXSP,2013-11-17 13:38:00,
2013-11-17 07:43:00,44.7,40.5,29.32,SW,225,0.0,0.0,85,0.00,,,0.00,WUHU21636XXSP,2013-11-17 13:43:00,
2013-11-17 07:48:00,44.7,40.5,29.31,SW,225,0.0,0.0,85,0.00,,,0.00,WUHU21636XXSP,2013-11-17 13:48:00,
2013-11-17 07:53:00,45.0,40.8,29.30,SW,225,0.0,0.0,85,0.00,,,0.00,WUHU21636XXSP,2013-11-17 13:53:00,
2013-11-17 07:58:00,45.3,41.0,29.30,SW,225,0.0,0.0,85,0.00,,,0.00,WUHU21636XXSP,2013-11-17 13:58:00,
2013-11-17 08:03:00,45.3,41.0,29.31,SW,225,0.0,0.0,85,0.00,,,0.00,WUHU21636XXSP,2013-11-17 14:03:00,
2013-11-17 08:08:00,45.5,41.2,29.32,SW,225,0.0,0.0,85,0.00,,,0.00,WUHU21636XXSP,2013-11-17 14:08:00,
2013-11-17 08:13:00,45.5,41.2,29.33,SW,225,0.0,0.0,85,0.00,,,0.00,WUHU21636XXSP,2013-11-17 14:13:00,
2013-11-17 08:18:00,45.9,41.6,29.33,SW,225,0.0,0.0,85,0.00,,,0.00,WUHU21636XXSP,2013-11-17 14:18:00,
2013-11-17 08:23:00,46.2,41.9,29.32,SW,225,0.0,0.0,85,0.00,,,0.00,WUHU21636XXSP,2013-11-17 14:23:00,
2013-11-17 08:28:00,46.9,42.6,29.32,WSW,247,1.2,1.2,85,0.00,,,0.00,WUHU21636XXSP,2013-11-17 14:28:00,
2013-11-17 08:33:00,47.4,43.1,29.32,WSW,247,0.0,1.2,85,0.00,,,0.00,WUHU21636XXSP,2013-11-17 14:33:00,
2013-11-17 08:38:00,47.1,42.9,29.31,WSW,247,0.0,0.0,85,0.00,,,0.00,WUHU21636XXSP,2013-11-17 14:38:00,
2013-11-17 08:43:00,47.1,42.9,29.32,WSW,247,0.0,0.0,85,0.00,,,0.00,WUHU21636XXSP,2013-11-17 14:43:00,
2013-11-17 08:48:00,46.9,42.6,29.31,WSW,247,0.0,0.0,85,0.00,,,0.00,WUHU21636XXSP,2013-11-17 14:48:00,
2013-11-17 08:53:00,46.9,42.6,29.32,SSE,157,0.0,0.0,85,0.00,,,0.00,WUHU21636XXSP,2013-11-17 14:53:00,
2013-11-17 08:58:00,46.6,42.3,29.32,SSW,202,3.4,3.4,85,0.00,,,0.00,WUHU21636XXSP,2013-11-17 14:58:00,
2013-11-17 09:03:00,46.4,42.1,29.33,SSE,157,0.0,3.4,85,0.00,,,0.00,WUHU21636XXSP,2013-11-17 15:03:00,
2013-11-17 09:08:00,46.4,42.1,29.33,SSW,202,0.0,3.4,85,0.00,,,0.00,WUHU21636XXSP,2013-11-17 15:08:00,
2013-11-17 09:13:00,46.4,42.1,29.33,SSW,202,0.0,0.0,85,0.00,,,0.00,WUHU21636XXSP,2013-11-17 15:13:00,
2013-11-17 09:18:00,46.4,42.1,29.33,SSW,202,0.0,0.0,85,0.00,,,0.00,WUHU21636XXSP,2013-11-17 15:18:00,
2013-11-17 09:23:00,46.4,42.1,29.34,SSW,202,0.0,0.0,85,0.00,,,0.00,WUHU21636XXSP,2013-11-17 15:23:00,
2013-11-17 09:28:00,46.4,42.1,29.35,SSW,202,0.0,0.0,85,0.00,,,0.00,WUHU21636XXSP,2013-11-17 15:28:00,
2013-11-17 09:33:00,46.2,41.9,29.35,SSW,202,0.0,0.0,85,0.00,,,0.00,WUHU21636XXSP,2013-11-17 15:33:00,
2013-11-17 09:38:00,46.0,41.7,29.36,SW,225,8.0,8.0,85,0.00,,,0.00,WUHU21636XXSP,2013-11-17 15:38:00,
2013-11-17 09:43:00,46.0,41.4,29.37,SSW,202,0.0,8.0,84,0.00,,,0.00,WUHU21636XXSP,2013-11-17 15:43:00,
2013-11-17 09:48:00,46.0,41.4,29.36,SSW,202,0.0,0.0,84,0.00,,,0.00,WUHU21636XXSP,2013-11-17 15:48:00,
2013-11-17 09:53:00,46.0,41.4,29.35,SSW,202,0.0,0.0,84,0.02,,,0.02,WUHU21636XXSP,2013-11-17 15:53:00,
2013-11-17 09:58:00,46.0,41.4,29.34,ESE,112,0.0,0.0,84,0.02,,,0.02,WUHU21636XXSP,2013-11-17 15:58:00,
2013-11-17 10:03:00,45.5,40.6,29.35,NE,45,0.0,0.0,83,0.06,,,0.05,WUHU21636XXSP,2013-11-17 16:03:00,
2013-11-17 10:08:00,45.3,40.4,29.36,NE,45,0.0,0.0,83,0.08,,,0.07,WUHU21636XXSP,2013-11-17 16:08:00,
2013-11-17 10:13:00,44.9,40.1,29.37,NE,45,0.0,0.0,83,0.08,,,0.07,WUHU21636XXSP,2013-11-17 16:13:00,
2013-11-17 10:18:00,44.7,40.2,29.36,NE,45,0.0,0.0,84,0.10,,,0.10,WUHU21636XXSP,2013-11-17 16:18:00,
2013-11-17 10:23:00,44.7,40.2,29.36,NE,45,0.0,0.0,84,0.10,,,0.10,WUHU21636XXSP,2013-11-17 16:23:00,
2013-11-17 10:28:00,44.7,40.2,29.38,NE,45,0.0,0.0,84,0.12,,,0.12,WUHU21636XXSP,2013-11-17 16:28:00,
2013-11-17 10:33:00,44.5,40.0,29.38,West,270,0.0,0.0,84,0.12,,,0.12,WUHU21636XXSP,2013-11-17 16:33:00,
2013-11-17 10:38:00,44.1,39.3,29.37,WNW,292,0.0,0.0,83,0.12,,,0.12,WUHU21636XXSP,2013-11-17 16:38:00,
2013-11-17 10:43:00,44.0,39.2,29.36,WNW,292,0.0,0.0,83,0.12,,,0.12,WUHU21636XXSP,2013-11-17 16:43:00,
2013-11-17 10:48:00,44.1,39.6,29.36,WNW,292,0.0,0.0,84,0.14,,,0.14,WUHU21636XXSP,2013-11-17 16:48:00,
2013-11-17 10:53:00,44.5,40.0,29.35,WNW,292,0.0,0.0,84,0.14,,,0.14,WUHU21636XXSP,2013-11-17 16:53:00,
2013-11-17 10:58:00,44.9,40.4,29.34,ENE,67,0.0,0.0,84,0.14,,,0.14,WUHU21636XXSP,2013-11-17 16:58:00,
2013-11-17 11:03:00,44.9,40.4,29.33,ENE,67,0.0,0.0,84,0.10,,,0.14,WUHU21636XXSP,2013-11-17 17:03:00,
2013-11-17 11:08:00,44.9,40.4,29.32,ENE,67,0.0,0.0,84,0.10,,,0.14,WUHU21636XXSP,2013-11-17 17:08:00,
2013-11-17 11:13:00,45.0,40.5,29.33,ESE,112,0.0,0.0,84,0.10,,,0.14,WUHU21636XXSP,2013-11-17 17:13:00,
2013-11-17 11:18:00,44.9,40.4,29.33,SW,225,0.0,0.0,84,0.10,,,0.14,WUHU21636XXSP,2013-11-17 17:18:00,
2013-11-17 11:23:00,44.7,39.9,29.32,NNW,337,0.0,0.0,83,0.10,,,0.14,WUHU21636XXSP,2013-11-17 17:23:00,
2013-11-17 11:28:00,44.5,39.7,29.32,NW,315,0.0,0.0,83,0.10,,,0.14,WUHU21636XXSP,2013-11-17 17:28:00,
2013-11-17 11:33:00,44.3,39.5,29.32,WNW,292,0.0,0.0,83,0.10,,,0.14,WUHU21636XXSP,2013-11-17 17:33:00,
2013-11-17 11:38:00,44.1,39.0,29.32,NW,315,0.0,0.0,82,0.10,,,0.14,WUHU21636XXSP,2013-11-17 17:38:00,
2013-11-17 11:43:00,44.1,39.0,29.32,NW,315,0.0,0.0,82,0.10,,,0.14,WUHU21636XXSP,2013-11-17 17:43:00,
2013-11-17 11:48:00,44.1,39.0,29.32,West,270,0.0,0.0,82,0.10,,,0.14,WUHU21636XXSP,2013-11-17 17:48:00,
2013-11-17 11:53:00,44.0,38.9,29.32,WNW,292,0.0,0.0,82,0.10,,,0.14,WUHU21636XXSP,2013-11-17 17:53:00,
2013-11-17 11:58:00,44.0,38.9,29.32,SW,225,0.0,0.0,82,0.10,,,0.14,WUHU21636XXSP,2013-11-17 17:58:00,
2013-11-17 12:03:00,44.0,38.9,29.30,SW,225,0.0,0.0,82,0.00,,,0.14,WUHU21636XXSP,2013-11-17 18:03:00,
2013-11-17 12:08:00,44.0,38.9,29.30,West,270,0.0,0.0,82,0.00,,,0.14,WUHU21636XXSP,2013-11-17 18:08:00,
2013-11-17 12:13:00,43.8,38.7,29.30,West,270,0.0,0.0,82,0.00,,,0.14,WUHU21636XXSP,2013-11-17 18:13:00,
2013-11-17 12:18:00,43.4,38.2,29.30,SW,225,0.0,0.0,82,0.00,,,0.14,WUHU21636XXSP,2013-11-17 18:18:00,
2013-11-17 12:23:00,43.4,38.2,29.30,SSW,202,0.0,0.0,82,0.00,,,0.14,WUHU21636XXSP,2013-11-17 18:23:00,
2013-11-17 12:28:00,43.4,38.2,29.30,SSW,202,0.0,0.0,82,0.00,,,0.14,WUHU21636XXSP,2013-11-17 18:28:00,
2013-11-17 12:33:00,43.4,38.2,29.30,WSW,247,0.0,0.0,82,0.00,,,0.14,WUHU21636XXSP,2013-11-17 18:33:00,
2013-11-17 12:38:00,43.4,38.2,29.30,ESE,112,4.4,4.4,82,0.00,,,0.14,WUHU21636XXSP,2013-11-17 18:38:00,
2013-11-17 12:43:00,43.2,38.0,29.30,SW,225,0.0,4.4,82,0.00,,,0.14,WUHU21636XXSP,2013-11-17 18:43:00,
2013-11-17 12:48:00,43.2,38.0,29.30,SSE,157,0.0,0.0,82,0.00,,,0.14,WUHU21636XXSP,2013-11-17 18:48:00,
2013-11-17 12:53:00,43.4,38.5,29.31,WNW,292,0.0,0.0,83,0.00,,,0.14,WUHU21636XXSP,2013-11-17 18:53:00,
2013-11-17 12:58:00,43.4,38.5,29.31,SSW,202,0.0,0.0,83,0.02,,,0.16,WUHU21636XXSP,2013-11-17 18:58:00,
2013-11-17 13:03:00,43.4,38.5,29.31,SSW,202,0.0,0.0,83,0.02,,,0.16,WUHU21636XXSP,2013-11-17 19:03:00,
2013-11-17 13:08:00,43.4,38.5,29.31,ESE,112,0.0,0.0,83,0.04,,,0.18,WUHU21636XXSP,2013-11-17 19:08:00,
2013-11-17 13:13:00,43.6,38.8,29.30,South,180,0.0,0.0,83,0.04,,,0.18,WUHU21636XXSP,2013-11-17 19:13:00,
2013-11-17 13:18:00,43.4,38.5,29.31,WSW,247,0.0,0.0,83,0.04,,,0.18,WUHU21636XXSP,2013-11-17 19:18:00,
2013-11-17 13:23:00,43.6,38.8,29.31,SSW,202,0.0,0.0,83,0.04,,,0.18,WUHU21636XXSP,2013-11-17 19:23:00,
2013-11-17 13:28:00,43.8,39.0,29.32,South,180,0.0,0.0,83,0.04,,,0.18,WUHU21636XXSP,2013-11-17 19:28:00,
2013-11-17 13:33:00,43.8,39.0,29.32,South,180,0.0,0.0,83,0.04,,,0.18,WUHU21636XXSP,2013-11-17 19:33:00,
2013-11-17 13:38:00,43.6,38.8,29.32,SSE,157,0.0,0.0,83,0.04,,,0.18,WUHU21636XXSP,2013-11-17 19:38:00,
2013-11-17 13:43:00,43.4,38.5,29.32,SE,135,0.0,0.0,83,0.04,,,0.18,WUHU21636XXSP,2013-11-17 19:43:00,
2013-11-17 13:48:00,43.4,38.2,29.32,ESE,112,0.0,0.0,82,0.04,,,0.18,WUHU21636XXSP,2013-11-17 19:48:00,
2013-11-17 13:53:00,43.0,37.6,29.33,NW,315,0.0,0.0,81,0.04,,,0.18,WUHU21636XXSP,2013-11-17 19:53:00,
2013-11-17 13:58:00,42.8,37.7,29.35,SW,225,0.0,0.0,82,0.04,,,0.18,WUHU21636XXSP,2013-11-17 19:58:00,
2013-11-17 14:03:00,42.8,37.7,29.35,NE,45,0.0,0.0,82,0.02,,,0.18,WUHU21636XXSP,2013-11-17 20:03:00,
2013-11-17 14:08:00,42.6,37.5,29.35,NW,315,0.0,0.0,82,0.02,,,0.18,WUHU21636XXSP,2013-11-17 20:08:00,
2013-11-17 14:13:00,42.6,37.5,29.36,NW,315,0.0,0.0,82,0.02,,,0.18,WUHU21636XXSP,2013-11-17 20:13:00,
2013-11-17 14:18:00,42.6,37.5,29.37,SW,225,0.0,0.0,82,0.02,,,0.18,WUHU21636XXSP,2013-11-17 20:18:00,
2013-11-17 14:23:00,42.4,37.3,29.37,SW,225,0.0,0.0,82,0.02,,,0.18,WUHU21636XXSP,2013-11-17 20:23:00,
2013-11-17 14:28:00,42.4,37.3,29.37,SSW,202,0.0,0.0,82,0.02,,,0.18,WUHU21636XXSP,2013-11-17 20:28:00,
2013-11-17 14:33:00,42.4,37.3,29.37,WSW,247,0.0,0.0,82,0.02,,,0.18,WUHU21636XXSP,2013-11-17 20:33:00,
2013-11-17 14:38:00,42.2,37.1,29.39,SW,225,0.0,0.0,82,0.02,,,0.18,WUHU21636XXSP,2013-11-17 20:38:00,
2013-11-17 14:43:00,42.2,37.1,29.39,SW,225,0.0,0.0,82,0.02,,,0.18,WUHU21636XXSP,2013-11-17 20:43:00,
2013-11-17 14:48:00,42.2,37.1,29.40,South,180,0.0,0.0,82,0.02,,,0.18,WUHU21636XXSP,2013-11-17 20:48:00,
2013-11-17 14:53:00,42.2,37.1,29.40,SSE,157,0.0,0.0,82,0.02,,,0.18,WUHU21636XXSP,2013-11-17 20:53:00,
2013-11-17 14:58:00,42.1,37.0,29.40,WSW,247,0.0,0.0,82,0.02,,,0.18,WUHU21636XXSP,2013-11-17 20:58:00,
2013-11-17 15:03:00,42.1,37.0,29.40,WNW,292,0.0,0.0,82,0.00,,,0.18,WUHU21636XXSP,2013-11-17 21:03:00,
2013-11-17 15:08:00,42.1,37.0,29.41,SE,135,0.0,0.0,82,0.00,,,0.18,WUHU21636XXSP,2013-11-17 21:08:00,
2013-11-17 15:13:00,41.9,36.8,29.42,WSW,247,0.0,0.0,82,0.00,,,0.18,WUHU21636XXSP,2013-11-17 21:13:00,
2013-11-17 15:18:00,41.9,36.8,29.42,WSW,247,0.0,0.0,82,0.00,,,0.18,WUHU21636XXSP,2013-11-17 21:18:00,
2013-11-17 15:23:00,41.9,36.8,29.43,WSW,247,0.0,0.0,82,0.00,,,0.18,WUHU21636XXSP,2013-11-17 21:23:00,
2013-11-17 15:28:00,41.9,36.5,29.43,SE,135,6.2,6.2,81,0.00,,,0.18,WUHU21636XXSP,2013-11-17 21:28:00,
2013-11-17 15:33:00,41.9,36.5,29.44,WNW,292,0.0,6.2,81,0.00,,,0.18,WUHU21636XXSP,2013-11-17 21:33:00,
2013-11-17 15:38:00,41.7,36.0,29.44,WNW,292,0.0,6.2,80,0.00,,,0.18,WUHU21636XXSP,2013-11-17 21:38:00,
2013-11-17 15:43:00,41.9,36.2,29.44,SSW,202,0.0,0.0,80,0.00,,,0.18,WUHU21636XXSP,2013-11-17 21:43:00,
2013-11-17 15:48:00,41.9,36.2,29.45,East,90,0.0,0.0,80,0.00,,,0.18,WUHU21636XXSP,2013-11-17 21:48:00,
2013-11-17 15:53:00,41.7,35.7,29.45,East,90,0.0,0.0,79,0.00,,,0.18,WUHU21636XXSP,2013-11-17 21:53:00,
2013-11-17 15:58:00,41.9,36.2,29.46,North,0,0.0,0.0,80,0.00,,,0.18,WUHU21636XXSP,2013-11-17 21:58:00,
2013-11-17 16:03:00,41.7,35.7,29.46,SW,225,0.0,0.0,79,0.00,,,0.18,WUHU21636XXSP,2013-11-17 22:03:00,
2013-11-17 16:08:00,41.9,35.9,29.47,South,180,0.0,0.0,79,0.00,,,0.18,WUHU21636XXSP,2013-11-17 22:08:00,
2013-11-17 16:13:00,41.9,35.9,29.47,WNW,292,0.0,0.0,79,0.00,,,0.18,WUHU21636XXSP,2013-11-17 22:13:00,
2013-11-17 16:18:00,41.9,35.9,29.48,South,180,7.3,14.2,79,0.00,,,0.18,WUHU21636XXSP,2013-11-17 22:18:00,
2013-11-17 16:23:00,41.9,35.9,29.48,SW,225,0.0,14.2,79,0.00,,,0.18,WUHU21636XXSP,2013-11-17 22:23:00,
2013-11-17 16:28:00,42.1,35.8,29.49,SSW,202,0.0,0.0,78,0.00,,,0.18,WUHU21636XXSP,2013-11-17 22:28:00,
2013-11-17 16:33:00,42.1,35.8,29.49,South,180,0.0,1.2,78,0.00,,,0.18,WUHU21636XXSP,2013-11-17 22:33:00,
2013-11-17 16:38:00,42.1,36.1,29.50,SE,135,2.2,2.2,79,0.00,,,0.18,WUHU21636XXSP,2013-11-17 22:38:00,
2013-11-17 16:43:00,42.1,36.1,29.50,SSE,157,0.0,2.2,79,0.00,,,0.18,WUHU21636XXSP,2013-11-17 22:43:00,
2013-11-17 16:48:00,42.2,35.9,29.50,WSW,247,0.0,2.2,78,0.00,,,0.18,WUHU21636XXSP,2013-11-17 22:48:00,
2013-11-17 16:53:00,42.2,35.6,29.51,WSW,247,0.0,0.0,77,0.00,,,0.18,WUHU21636XXSP,2013-11-17 22:53:00,
2013-11-17 16:58:00,42.2,35.6,29.51,NE,45,0.0,0.0,77,0.00,,,0.18,WUHU21636XXSP,2013-11-17 22:58:00,
2013-11-17 17:03:00,42.2,35.9,29.52,South,180,0.0,0.8,78,0.00,,,0.18,WUHU21636XXSP,2013-11-17 23:03:00,
2013-11-17 17:08:00,42.2,35.6,29.52,SE,135,4.4,4.4,77,0.00,,,0.18,WUHU21636XXSP,2013-11-17 23:08:00,
2013-11-17 17:13:00,42.2,35.6,29.52,WSW,247,0.0,4.4,77,0.00,,,0.18,WUHU21636XXSP,2013-11-17 23:13:00,
2013-11-17 17:18:00,42.2,35.2,29.53,South,180,0.0,4.4,76,0.00,,,0.18,WUHU21636XXSP,2013-11-17 23:18:00,
2013-11-17 17:23:00,42.2,35.2,29.54,SSW,202,0.0,0.0,76,0.00,,,0.18,WUHU21636XXSP,2013-11-17 23:23:00,
2013-11-17 17:28:00,42.2,35.2,29.54,SSW,202,0.0,0.0,76,0.00,,,0.18,WUHU21636XXSP,2013-11-17 23:28:00,
2013-11-17 17:33:00,42.2,34.9,29.55,SE,135,0.0,5.8,75,0.00,,,0.18,WUHU21636XXSP,2013-11-17 23:33:00,
2013-11-17 17:38:00,42.2,34.9,29.55,South,180,0.0,5.8,75,0.00,,,0.18,WUHU21636XXSP,2013-11-17 23:38:00,
2013-11-17 17:43:00,42.1,34.8,29.55,SSW,202,0.0,0.0,75,0.00,,,0.18,WUHU21636XXSP,2013-11-17 23:43:00,
2013-11-17 17:48:00,42.1,34.8,29.55,SW,225,0.0,0.0,75,0.00,,,0.18,WUHU21636XXSP,2013-11-17 23:48:00,
2013-11-17 17:53:00,42.1,34.5,29.56,North,0,2.2,19.6,74,0.00,,,0.18,WUHU21636XXSP,2013-11-17 23:53:00,
2013-11-17 17:58:00,42.1,34.8,29.56,SSW,202,6.6,19.6,75,0.00,,,0.18,WUHU21636XXSP,2013-11-17 23:58:00,
2013-11-17 18:03:00,41.9,34.3,29.57,SSW,202,0.0,6.6,74,0.00,,,0.18,WUHU21636XXSP,2013-11-18 00:03:00,
2013-11-17 18:08:00,41.9,34.3,29.57,West,270,0.0,0.0,74,0.00,,,0.18,WUHU21636XXSP,2013-11-18 00:08:00,
2013-11-17 18:13:00,41.9,34.3,29.58,SW,225,0.0,1.2,74,0.00,,,0.18,WUHU21636XXSP,2013-11-18 00:13:00,
2013-11-17 18:18:00,41.9,34.3,29.58,SE,135,0.0,1.2,74,0.00,,,0.18,WUHU21636XXSP,2013-11-18 00:18:00,
2013-11-17 18:23:00,41.9,34.3,29.59,SW,225,4.0,4.0,74,0.00,,,0.18,WUHU21636XXSP,2013-11-18 00:23:00,
2013-11-17 18:28:00,41.7,34.1,29.59,South,180,0.0,4.0,74,0.00,,,0.18,WUHU21636XXSP,2013-11-18 00:28:00,
2013-11-17 18:33:00,41.5,33.5,29.59,SW,225,3.4,3.4,73,0.00,,,0.18,WUHU21636XXSP,2013-11-18 00:33:00,
2013-11-17 18:38:00,41.3,33.3,29.59,NW,315,0.0,3.4,73,0.00,,,0.18,WUHU21636XXSP,2013-11-18 00:38:00,
2013-11-17 18:43:00,41.3,33.3,29.60,WSW,247,0.0,3.4,73,0.00,,,0.18,WUHU21636XXSP,2013-11-18 00:43:00,
2013-11-17 18:48:00,41.0,33.0,29.60,SSE,157,1.6,1.6,73,0.00,,,0.18,WUHU21636XXSP,2013-11-18 00:48:00,
2013-11-17 18:53:00,41.0,32.7,29.61,WSW,247,0.0,1.6,72,0.00,,,0.18,WUHU21636XXSP,2013-11-18 00:53:00,
2013-11-17 18:58:00,41.0,32.7,29.61,NNE,22,0.0,1.6,72,0.00,,,0.18,WUHU21636XXSP,2013-11-18 00:58:00,
2013-11-17 19:03:00,40.7,32.8,29.61,South,180,0.0,1.6,73,0.00,,,0.18,WUHU21636XXSP,2013-11-18 01:03:00,
2013-11-17 19:08:00,40.7,33.2,29.61,South,180,0.0,1.6,74,0.00,,,0.18,WUHU21636XXSP,2013-11-18 01:08:00,
2013-11-17 19:13:00,40.7,32.8,29.61,WSW,247,0.0,0.0,73,0.00,,,0.18,WUHU21636XXSP,2013-11-18 01:13:00,
2013-11-17 19:18:00,40.5,33.0,29.62,South,180,1.6,18.6,74,0.00,,,0.18,WUHU21636XXSP,2013-11-18 01:18:00,
2013-11-17 19:23:00,40.7,33.2,29.62,WSW,247,0.0,18.6,74,0.00,,,0.18,WUHU21636XXSP,2013-11-18 01:23:00,
2013-11-17 19:28:00,40.5,33.0,29.63,SSW,202,13.8,14.6,74,0.00,,,0.18,WUHU21636XXSP,2013-11-18 01:28:00,
2013-11-17 19:33:00,40.5,33.0,29.63,SSW,202,7.0,14.6,74,0.00,,,0.18,WUHU21636XXSP,2013-11-18 01:33:00,
2013-11-17 19:38:00,40.5,33.0,29.63,West,270,0.0,7.0,74,0.00,,,0.18,WUHU21636XXSP,2013-11-18 01:38:00,
2013-11-17 19:43:00,40.3,32.4,29.63,NNE,22,0.0,7.0,73,0.00,,,0.18,WUHU21636XXSP,2013-11-18 01:43:00,
2013-11-17 19:48:00,40.2,32.3,29.64,SW,225,0.8,0.8,73,0.00,,,0.18,WUHU21636XXSP,2013-11-18 01:48:00,
2013-11-17 19:53:00,40.0,32.1,29.64,SW,225,0.0,0.8,73,0.00,,,0.18,WUHU21636XXSP,2013-11-18 01:53:00,
2013-11-17 19:58:00,39.6,31.7,29.64,South,180,0.0,0.8,73,0.00,,,0.18,WUHU21636XXSP,2013-11-18 01:58:00,
2013-11-17 20:03:00,39.6,31.0,29.65,WSW,247,0.0,0.0,71,0.00,,,0.18,WUHU21636XXSP,2013-11-18 02:03:00,
2013-11-17 20:08:00,39.6,31.0,29.65,WNW,292,0.0,0.0,71,0.00,,,0.18,WUHU21636XXSP,2013-11-18 02:08:00,
2013-11-17 20:13:00,39.4,30.8,29.65,SE,135,0.0,0.0,71,0.00,,,0.18,WUHU21636XXSP,2013-11-18 02:13:00,
2013-11-17 20:18:00,39.4,31.2,29.65,SSW,202,0.0,0.0,72,0.00,,,0.18,WUHU21636XXSP,2013-11-18 02:18:00,
2013-11-17 20:23:00,39.4,31.5,29.66,SSW,202,4.0,4.0,73,0.00,,,0.18,WUHU21636XXSP,2013-11-18 02:23:00,
2013-11-17 20:28:00,39.4,31.5,29.66,NE,45,0.0,4.0,73,0.00,,,0.18,WUHU21636XXSP,2013-11-18 02:28:00,
2013-11-17 20:33:00,39.1,30.5,29.66,WSW,247,0.0,0.0,71,0.00,,,0.18,WUHU21636XXSP,2013-11-18 02:33:00,
2013-11-17 20:38:00,39.1,30.9,29.67,ENE,67,3.0,3.0,72,0.00,,,0.18,WUHU21636XXSP,2013-11-18 02:38:00,
2013-11-17 20:43:00,38.8,30.7,29.67,ENE,67,0.0,3.0,72,0.00,,,0.18,WUHU21636XXSP,2013-11-18 02:43:00,
2013-11-17 20:48:00,38.6,30.1,29.67,SSE,157,4.0,5.8,71,0.00,,,0.18,WUHU21636XXSP,2013-11-18 02:48:00,
2013-11-17 20:53:00,38.6,30.1,29.67,NNW,337,0.0,5.8,71,0.00,,,0.18,WUHU21636XXSP,2013-11-18 02:53:00,
2013-11-17 20:58:00,38.6,30.1,29.67,NNW,337,0.0,1.2,71,0.00,,,0.18,WUHU21636XXSP,2013-11-18 02:58:00,
2013-11-17 21:03:00,38.6,30.8,29.68,WSW,247,3.0,12.4,73,0.00,,,0.18,WUHU21636XXSP,2013-11-18 03:03:00,
2013-11-17 21:08:00,38.6,30.8,29.68,SW,225,4.4,12.4,73,0.00,,,0.18,WUHU21636XXSP,2013-11-18 03:08:00,
2013-11-17 21:13:00,38.6,30.8,29.69,WSW,247,0.0,4.4,73,0.00,,,0.18,WUHU21636XXSP,2013-11-18 03:13:00,
2013-11-17 21:18:00,38.4,30.6,29.69,SW,225,0.0,0.0,73,0.00,,,0.18,WUHU21636XXSP,2013-11-18 03:18:00,
2013-11-17 21:23:00,38.4,30.6,29.69,WSW,247,8.8,8.8,73,0.00,,,0.18,WUHU21636XXSP,2013-11-18 03:23:00,
2013-11-17 21:28:00,38.3,30.5,29.69,SSE,160,6.2,17.4,73,0.00,,,0.18,WUHU21636XXSP,2013-11-18 03:28:00,
2013-11-17 21:33:00,38.1,30.0,29.70,SW,225,0.0,17.4,72,0.00,,,0.18,WUHU21636XXSP,2013-11-18 03:33:00,
2013-11-17 21:38:00,37.7,29.5,29.70,South,180,7.6,15.2,72,0.00,,,0.18,WUHU21636XXSP,2013-11-18 03:38:00,
2013-11-17 21:43:00,37.7,29.5,29.70,WSW,247,0.0,7.6,72,0.00,,,0.18,WUHU21636XXSP,2013-11-18 03:43:00,
2013-11-17 21:48:00,37.5,29.3,29.70,SW,225,7.0,7.0,72,0.00,,,0.18,WUHU21636XXSP,2013-11-18 03:48:00,
2013-11-17 21:53:00,37.5,29.0,29.70,West,270,6.2,7.0,71,0.00,,,0.18,WUHU21636XXSP,2013-11-18 03:53:00,
2013-11-17 21:58:00,37.5,29.0,29.70,WSW,247,0.4,22.8,71,0.00,,,0.18,WUHU21636XXSP,2013-11-18 03:58:00,
2013-11-17 22:03:00,37.4,29.2,29.70,South,180,0.0,22.8,72,0.00,,,0.18,WUHU21636XXSP,2013-11-18 04:03:00,
2013-11-17 22:08:00,37.2,29.0,29.71,SSE,157,7.6,7.6,72,0.00,,,0.18,WUHU21636XXSP,2013-11-18 04:08:00,
2013-11-17 22:13:00,37.0,28.5,29.70,SW,225,0.0,7.6,71,0.00,,,0.18,WUHU21636XXSP,2013-11-18 04:13:00,
2013-11-17 22:18:00,36.8,28.0,29.71,ESE,112,0.0,0.0,70,0.00,,,0.18,WUHU21636XXSP,2013-11-18 04:18:00,
2013-11-17 22:23:00,36.8,28.0,29.71,West,270,0.0,0.0,70,0.00,,,0.18,WUHU21636XXSP,2013-11-18 04:23:00,
2013-11-17 22:28:00,36.8,28.3,29.73,SW,225,0.0,3.4,71,0.00,,,0.18,WUHU21636XXSP,2013-11-18 04:28:00,
2013-11-17 22:33:00,36.5,28.4,29.73,SSW,202,7.0,7.0,72,0.00,,,0.18,WUHU21636XXSP,2013-11-18 04:33:00,
2013-11-17 22:38:00,36.5,28.1,29.73,SSW,202,0.0,7.0,71,0.00,,,0.18,WUHU21636XXSP,2013-11-18 04:38:00,
2013-11-17 22:43:00,36.4,27.7,29.73,WSW,247,0.0,7.0,70,0.00,,,0.18,WUHU21636XXSP,2013-11-18 04:43:00,
2013-11-17 22:48:00,36.2,27.4,29.74,SW,225,0.0,0.0,70,0.00,,,0.18,WUHU21636XXSP,2013-11-18 04:48:00,
2013-11-17 22:53:00,36.2,27.4,29.74,SSW,202,0.0,0.0,70,0.00,,,0.18,WUHU21636XXSP,2013-11-18 04:53:00,
2013-11-17 22:58:00,35.8,27.0,29.74,SSW,202,0.0,5.8,70,0.00,,,0.18,WUHU21636XXSP,2013-11-18 04:58:00,
2013-11-17 23:01:00,35.8,26.7,29.74,West,270,1.2,5.8,69,0.00,,,0.18,WUHU21636XXSP,2013-11-18 05:01:00,
2013-11-17 23:06:00,35.6,26.8,29.74,SW,225,0.0,1.2,70,0.00,,,0.18,WUHU21636XXSP,2013-11-18 05:06:00,
2013-11-17 23:11:00,35.6,26.8,29.74,SSE,157,0.0,0.0,70,0.00,,,0.18,WUHU21636XXSP,2013-11-18 05:11:00,
2013-11-17 23:16:00,35.3,26.5,29.75,South,180,0.0,0.0,70,0.00,,,0.18,WUHU21636XXSP,2013-11-18 05:16:00,
2013-11-17 23:21:00,35.3,26.5,29.75,ENE,67,0.0,0.0,70,0.00,,,0.18,WUHU21636XXSP,2013-11-18 05:21:00,
2013-11-17 23:26:00,35.3,26.9,29.75,ENE,67,0.0,0.0,71,0.00,,,0.18,WUHU21636XXSP,2013-11-18 05:26:00,
2013-11-17 23:31:00,35.3,26.5,29.76,SSW,202,0.0,0.0,70,0.00,,,0.18,WUHU21636XXSP,2013-11-18 05:31:00,
2013-11-17 23:36:00,35.3,26.9,29.76,SSE,157,0.0,0.0,71,0.00,,,0.18,WUHU21636XXSP,2013-11-18 05:36:00,
2013-11-17 23:41:00,35.1,26.7,29.76,SW,225,1.6,1.6,71,0.00,,,0.18,WUHU21636XXSP,2013-11-18 05:41:00,
2013-11-17 23:46:00,34.9,26.5,29.76,ESE,112,0.0,1.6,71,0.00,,,0.18,WUHU21636XXSP,2013-11-18 05:46:00,
2013-11-17 23:51:00,34.7,25.9,29.76,SW,225,0.0,0.0,70,0.00,,,0.18,WUHU21636XXSP,2013-11-18 05:51:00,
2013-11-17 23:56:00,34.7,25.6,29.77,SW,225,0.0,0.0,69,0.00,,,0.18,WUHU21636XXSP,2013-11-18 05:56:00,